Time;durP1;ratioP1;P1;durP2;ratioP2;P2;SDS_P1;SDS_P2;PMS_P1;PMS_P2;Temp;Humidity;BMP_temperature;BMP_pressure;BME280_temperature;BME280_humidity;BME280_pressure;Samples;Min_cycle;Max_cycle;Signal;HPM_P1;HPM_P2
2023/11/29 00:00:28;;;;;;;1999.90;999.90;;;;;;;6.95;70.74;100278.41;10401377;28;20046;-75
2023/11/29 00:05:31;;;;;;;1999.90;999.90;;;;;;;6.40;71.63;100280.22;10400681;28;20545;-74
2023/11/29 00:10:44;;;;;;;1999.90;999.90;;;;;;;6.44;71.89;100270.50;10401970;28;20084;-74
2023/11/29 00:15:50;;;;;;;1999.90;999.90;;;;;;;7.09;70.15;100265.53;10417902;28;20045;-74
2023/11/29 00:20:52;;;;;;;1999.90;999.90;;;;;;;6.73;70.94;100278.66;10400637;28;20049;-74
2023/11/29 00:25:54;;;;;;;1999.90;999.90;;;;;;;6.42;71.63;100259.34;10417410;28;20056;-74
2023/11/29 00:30:56;;;;;;;1999.90;999.90;;;;;;;6.79;70.50;100236.69;10400019;28;20049;-74
2023/11/29 00:35:59;;;;;;;1999.90;999.90;;;;;;;6.16;71.93;100225.03;10383830;28;20057;-74
2023/11/29 00:41:01;;;;;;;1999.90;999.90;;;;;;;5.91;73.83;100223.56;10416797;28;20077;-74
2023/11/29 00:46:07;;;;;;;1999.90;999.90;;;;;;;6.57;74.08;100197.91;10416742;28;20049;-74
2023/11/29 00:51:09;;;;;;;1999.90;999.90;;;;;;;6.47;73.35;100153.31;10398857;28;20053;-74
2023/11/29 00:56:11;;;;;;;1999.90;999.90;;;;;;;7.58;69.96;100143.13;10399115;28;20046;-74
2023/11/29 01:01:16;;;;;;;1999.90;999.90;;;;;;;6.14;75.02;100141.94;10416134;28;20077;-74
2023/11/29 01:06:18;;;;;;;1999.90;999.90;;;;;;;6.53;73.17;100145.22;10398263;28;20511;-74
2023/11/29 01:11:23;;;;;;;1999.90;999.90;;;;;;;6.33;72.82;100135.81;10398435;28;20049;-73
2023/11/29 01:16:26;;;;;;;1999.90;999.90;;;;;;;6.72;73.33;100126.91;10416200;28;20555;-73
2023/11/29 01:21:28;;;;;;;1999.90;999.90;;;;;;;7.15;71.43;100132.44;10415862;22;20060;-69
2023/11/29 01:26:38;;;;;;;1999.90;999.90;;;;;;;6.98;71.88;100132.50;10374411;28;20487;-67
2023/11/29 01:31:41;;;;;;;1999.90;999.90;;;;;;;6.62;74.27;100155.16;10373699;28;20049;-67
2023/11/29 01:36:43;;;;;;;1999.90;999.90;;;;;;;6.59;73.70;100144.91;10357098;28;20085;-67
2023/11/29 01:41:46;;;;;;;1999.90;999.90;;;;;;;6.80;72.23;100123.91;10356779;28;20046;-67
2023/11/29 01:46:48;;;;;;;1999.90;999.90;;;;;;;6.83;73.76;100106.38;10374369;28;20057;-67
2023/11/29 01:51:51;;;;;;;1999.90;999.90;;;;;;;6.50;75.04;100109.78;10356590;28;20054;-67
2023/11/29 01:56:53;;;;;;;1999.90;999.90;;;;;;;6.30;75.12;100108.25;10340850;28;20058;-68
2023/11/29 02:01:56;;;;;;;1999.90;999.90;;;;;;;6.31;77.42;100088.28;10356748;28;20046;-68
2023/11/29 02:06:58;;;;;;;1999.90;999.90;;;;;;;6.13;76.58;100096.06;10373745;28;20469;-68
2023/11/29 02:12:00;;;;;;;1999.90;999.90;;;;;;;6.31;77.02;100080.47;10356903;28;20054;-68
2023/11/29 02:17:03;;;;;;;1999.90;999.90;;;;;;;6.41;75.93;100081.69;10356263;28;20046;-68
2023/11/29 02:22:06;;;;;;;1999.90;999.90;;;;;;;6.24;76.04;100074.75;10373359;28;20106;-68
2023/11/29 02:27:09;;;;;;;1999.90;999.90;;;;;;;6.74;76.22;100066.97;10356482;28;20060;-68
2023/11/29 02:32:11;;;;;;;1999.90;999.90;;;;;;;6.01;77.58;100067.28;10356111;28;20050;-68
2023/11/29 02:37:14;;;;;;;1999.90;999.90;;;;;;;6.23;75.71;100061.81;10376661;28;20060;-68
2023/11/29 02:42:16;;;;;;;1999.90;999.90;;;;;;;6.70;74.41;100045.50;10380589;28;20050;-69
2023/11/29 02:47:18;;;;;;;1999.90;999.90;;;;;;;6.60;75.41;100050.34;10363218;28;20049;-69
2023/11/29 02:52:21;;;;;;;1999.90;999.90;;;;;;;6.28;77.61;100036.44;10380223;28;20073;-69
2023/11/29 02:57:23;;;;;;;1999.90;999.90;;;;;;;5.97;76.45;100038.00;10362989;28;20058;-69
2023/11/29 03:02:25;;;;;;;1999.90;999.90;;;;;;;6.64;76.05;100025.88;10362427;28;20125;-69
2023/11/29 03:07:28;;;;;;;1999.90;999.90;;;;;;;6.47;76.34;100011.16;10379924;28;20054;-69
2023/11/29 03:12:30;;;;;;;1999.90;999.90;;;;;;;6.51;75.19;100007.47;10379615;28;20089;-68
2023/11/29 03:17:32;;;;;;;1999.90;999.90;;;;;;;6.11;76.94;100003.50;10379690;28;20108;-68
2023/11/29 03:22:35;;;;;;;1999.90;999.90;;;;;;;6.09;75.81;100001.00;10378945;28;20046;-68
2023/11/29 03:27:38;;;;;;;1999.90;999.90;;;;;;;6.56;76.50;99977.78;10379326;28;20493;-68
2023/11/29 03:32:40;;;;;;;1999.90;999.90;;;;;;;6.51;76.37;99976.25;10361368;28;20386;-68
2023/11/29 03:37:43;;;;;;;1999.90;999.90;;;;;;;6.23;77.09;99994.22;10377398;28;20428;-68
2023/11/29 03:42:46;;;;;;;1999.90;999.90;;;;;;;6.01;78.45;99966.75;10377070;28;20144;-68
2023/11/29 03:47:48;;;;;;;1999.90;999.90;;;;;;;6.56;77.57;99963.00;10377447;28;20485;-68
2023/11/29 03:52:51;;;;;;;1999.90;999.90;;;;;;;6.10;77.03;99968.88;10377894;28;20089;-68
2023/11/29 03:57:53;;;;;;;1999.90;999.90;;;;;;;6.05;75.24;99959.63;10344385;28;20054;-69
2023/11/29 04:02:55;;;;;;;1999.90;999.90;;;;;;;6.95;75.80;99956.53;10377398;28;20088;-68
2023/11/29 04:07:58;;;;;;;1999.90;999.90;;;;;;;6.53;75.88;99947.56;10359943;28;20489;-68
2023/11/29 04:13:01;;;;;;;1999.90;999.90;;;;;;;7.02;74.29;99928.41;10377202;28;20056;-68
2023/11/29 04:18:04;;;;;;;1999.90;999.90;;;;;;;6.95;74.28;99938.31;10376921;28;20053;-68
2023/11/29 04:23:06;;;;;;;1999.90;999.90;;;;;;;6.53;75.34;99931.97;10376685;28;20133;-69
2023/11/29 04:28:09;;;;;;;1999.90;999.90;;;;;;;6.07;77.43;99924.00;10359031;28;20052;-68
2023/11/29 04:33:11;;;;;;;1999.90;999.90;;;;;;;6.60;77.45;99915.09;10376581;28;20050;-68
2023/11/29 04:38:15;;;;;;;1999.90;999.90;;;;;;;7.62;72.25;99893.69;10376648;28;20069;-69
2023/11/29 04:43:18;;;;;;;1999.90;999.90;;;;;;;6.67;73.20;99890.44;10375015;28;20046;-69
2023/11/29 04:48:21;;;;;;;1999.90;999.90;;;;;;;6.66;74.54;99891.34;10374818;28;20061;-68
2023/11/29 04:53:24;;;;;;;1999.90;999.90;;;;;;;7.11;74.26;99882.78;10375662;28;20054;-68
2023/11/29 04:58:27;;;;;;;1999.90;999.90;;;;;;;6.47;76.97;99885.47;10358330;28;20132;-68
2023/11/29 05:03:29;;;;;;;1999.90;999.90;;;;;;;6.70;76.26;99885.03;10374419;28;20046;-68
2023/11/29 05:08:35;;;;;;;1999.90;999.90;;;;;;;6.40;75.13;99884.97;10375432;28;20046;-68
2023/11/29 05:13:38;;;;;;;1999.90;999.90;;;;;;;6.45;75.81;99888.16;10358305;28;20049;-68
2023/11/29 05:18:40;;;;;;;1999.90;999.90;;;;;;;7.04;75.51;99875.34;10375098;28;20050;-68
2023/11/29 05:23:43;;;;;;;1999.90;999.90;;;;;;;6.90;74.42;99858.84;10374989;28;20104;-68
2023/11/29 05:28:45;;;;;;;1999.90;999.90;;;;;;;6.34;77.60;99861.94;10373385;28;20092;-68
2023/11/29 05:33:49;;;;;;;1999.90;999.90;;;;;;;6.76;76.14;99857.88;10374402;28;20393;-68
2023/11/29 05:38:51;;;;;;;1999.90;999.90;;;;;;;6.63;76.96;99862.91;10374222;28;20050;-68
2023/11/29 05:43:54;;;;;;;1999.90;999.90;;;;;;;6.71;76.94;99859.88;10356941;28;20045;-68
2023/11/29 05:48:56;;;;;;;1999.90;999.90;;;;;;;6.92;78.02;99867.41;10374143;28;20489;-68
2023/11/29 05:53:58;;;;;;;1999.90;999.90;;;;;;;7.00;76.07;99865.19;10373972;28;20464;-68
2023/11/29 05:59:01;;;;;;;1999.90;999.90;;;;;;;6.52;77.70;99862.66;10373864;28;20058;-68
2023/11/29 06:04:04;;;;;;;1999.90;999.90;;;;;;;6.14;79.96;99863.00;10373786;28;20060;-69
2023/11/29 06:09:08;;;;;;;1999.90;999.90;;;;;;;6.26;77.76;99857.13;10373978;28;20045;-68
2023/11/29 06:14:10;;;;;;;1999.90;999.90;;;;;;;6.41;76.96;99849.44;10379937;28;20042;-68
2023/11/29 06:19:12;;;;;;;1999.90;999.90;;;;;;;6.72;76.15;99863.31;10348669;28;20054;-68
2023/11/29 06:24:15;;;;;;;1999.90;999.90;;;;;;;7.05;74.85;99857.97;10381222;28;20096;-68
2023/11/29 06:29:17;;;;;;;1999.90;999.90;;;;;;;6.67;77.21;99858.38;10381107;28;20496;-69
2023/11/29 06:34:20;;;;;;;1999.90;999.90;;;;;;;6.75;76.53;99861.38;10380083;28;20049;-69
2023/11/29 06:39:22;;;;;;;1999.90;999.90;;;;;;;6.05;80.37;99855.69;10380690;28;20524;-68
2023/11/29 06:44:25;;;;;;;1999.90;999.90;;;;;;;6.53;77.98;99871.31;10363264;28;20054;-69
2023/11/29 06:49:27;;;;;;;1999.90;999.90;;;;;;;7.10;76.02;99874.16;10363258;28;20057;-69
2023/11/29 06:54:29;;;;;;;1999.90;999.90;;;;;;;6.82;78.10;99883.50;10362772;28;20049;-68
2023/11/29 06:59:33;;;;;;;1999.90;999.90;;;;;;;6.87;77.33;99891.91;10380352;28;20148;-69
2023/11/29 07:04:36;;;;;;;1999.90;999.90;;;;;;;7.18;75.86;99895.38;10379801;28;20046;-69
2023/11/29 07:09:41;;;;;;;1999.90;999.90;;;;;;;7.05;76.36;99903.03;10379872;28;20050;-69
2023/11/29 07:14:45;;;;;;;1999.90;999.90;;;;;;;6.79;76.37;99904.53;10379371;28;20489;-69
2023/11/29 07:19:47;;;;;;;1999.90;999.90;;;;;;;7.14;77.15;99914.69;10379425;28;20050;-69
2023/11/29 07:24:50;;;;;;;1999.90;999.90;;;;;;;7.57;75.55;99924.41;10378063;28;20478;-69
2023/11/29 07:29:52;;;;;;;1999.90;999.90;;;;;;;6.78;78.18;99936.66;10345373;28;20056;-69
2023/11/29 07:34:55;;;;;;;1999.90;999.90;;;;;;;7.19;77.50;99946.50;10361306;28;20058;-69
2023/11/29 07:39:57;;;;;;;1999.90;999.90;;;;;;;6.90;78.73;99963.75;10361308;28;20053;-69
2023/11/29 07:45:00;;;;;;;1999.90;999.90;;;;;;;7.35;76.31;99964.69;10378442;28;20052;-69
2023/11/29 07:50:02;;;;;;;1999.90;999.90;;;;;;;7.94;74.68;99969.13;10377977;28;20081;-69
2023/11/29 07:55:05;;;;;;;1999.90;999.90;;;;;;;8.17;74.32;99972.97;10360517;28;20054;-69
2023/11/29 08:00:12;;;;;;;1999.90;999.90;;;;;;;8.34;72.72;99964.09;10360529;28;20049;-69
2023/11/29 08:05:16;;;;;;;1999.90;999.90;;;;;;;7.93;73.14;99975.25;10361297;28;20072;-69
2023/11/29 08:10:19;;;;;;;1999.90;999.90;;;;;;;8.40;69.86;99991.56;10360386;28;20086;-69
2023/11/29 08:15:21;;;;;;;1999.90;999.90;;;;;;;7.62;72.64;99984.88;10377216;28;20477;-69
2023/11/29 08:20:24;;;;;;;1999.90;999.90;;;;;;;8.19;70.88;100005.81;10377521;28;20050;-69
2023/11/29 08:25:26;;;;;;;1999.90;999.90;;;;;;;7.90;71.78;100012.78;10376568;28;20054;-70
2023/11/29 08:30:29;;;;;;;1999.90;999.90;;;;;;;7.93;73.17;100017.78;10376874;28;20053;-69
2023/11/29 08:35:31;;;;;;;1999.90;999.90;;;;;;;8.29;72.84;100020.94;10342953;28;20050;-69
2023/11/29 08:40:35;;;;;;;1999.90;999.90;;;;;;;8.28;73.50;100032.28;10358818;28;20057;-69
2023/11/29 08:45:37;;;;;;;1999.90;999.90;;;;;;;8.96;69.96;100039.47;10375886;28;20508;-69
2023/11/29 08:50:41;;;;;;;1999.90;999.90;;;;;;;8.42;71.37;100060.13;10358592;28;20058;-70
2023/11/29 08:55:44;;;;;;;1999.90;999.90;;;;;;;8.62;70.70;100064.19;10358473;28;20072;-69
2023/11/29 09:00:46;;;;;;;1999.90;999.90;;;;;;;8.47;71.25;100065.94;10358256;28;20056;-69
2023/11/29 09:05:50;;;;;;;1999.90;999.90;;;;;;;8.50;71.03;100068.38;10357765;28;20507;-69
2023/11/29 09:10:52;;;;;;;1999.90;999.90;;;;;;;8.86;70.61;100085.31;10375326;28;20054;-69
2023/11/29 09:15:57;;;;;;;1999.90;999.90;;;;;;;8.96;69.09;100083.84;10374940;28;20054;-69
2023/11/29 09:21:00;;;;;;;1999.90;999.90;;;;;;;9.37;66.76;100088.22;10374822;28;20071;-69
2023/11/29 09:26:03;;;;;;;1999.90;999.90;;;;;;;9.13;67.46;100093.25;10373718;28;20058;-69
2023/11/29 09:31:06;;;;;;;1999.90;999.90;;;;;;;11.06;62.18;100102.28;10374989;28;20511;-69
2023/11/29 09:36:10;;;;;;;1999.90;999.90;;;;;;;12.50;61.52;100099.69;10374353;28;20046;-70
2023/11/29 09:41:13;;;;;;;1999.90;999.90;;;;;;;11.62;59.53;100103.56;10357238;28;20485;-70
2023/11/29 09:46:17;;;;;;;1999.90;999.90;;;;;;;10.22;62.18;100119.31;10360379;28;20531;-69
2023/11/29 09:51:22;;;;;;;1999.90;999.90;;;;;;;9.78;62.60;100128.31;10387664;28;20057;-69
2023/11/29 09:56:24;;;;;;;1999.90;999.90;;;;;;;9.17;64.45;100122.59;10387554;28;20064;-69
2023/11/29 10:01:33;;;;;;;1999.90;999.90;;;;;;;9.42;64.23;100127.13;10387373;28;20072;-69
2023/11/29 10:06:36;;;;;;;1999.90;999.90;;;;;;;9.37;63.98;100126.59;10370194;28;20517;-69
2023/11/29 10:11:43;;;;;;;1999.90;999.90;;;;;;;9.41;65.23;100130.66;10387491;28;20081;-74
2023/11/29 10:16:48;;;;;;;1999.90;999.90;;;;;;;9.62;62.61;100131.09;10370005;28;20084;-74
2023/11/29 10:21:54;;;;;;;1999.90;999.90;;;;;;;10.00;62.83;100136.47;10369907;28;20057;-72
2023/11/29 10:26:56;;;;;;;1999.90;999.90;;;;;;;10.51;61.83;100132.28;10354521;28;20137;-73
2023/11/29 10:32:00;;;;;;;1999.90;999.90;;;;;;;10.35;62.36;100135.09;10385829;28;20516;-74
2023/11/29 10:37:03;;;;;;;1999.90;999.90;;;;;;;10.35;63.72;100132.47;10369619;28;20084;-74
2023/11/29 10:42:08;;;;;;;1999.90;999.90;;;;;;;10.20;64.30;100127.31;10369413;28;20516;-74
2023/11/29 10:47:26;;;;;;;1999.90;999.90;;;;;;;11.18;63.87;100125.94;10369735;28;20045;-74
2023/11/29 10:52:29;;;;;;;1999.90;999.90;;;;;;;10.54;62.67;100129.44;10369777;28;20050;-74
2023/11/29 10:57:49;;;;;;;1999.90;999.90;;;;;;;10.80;61.70;100122.44;10384994;28;20054;-74
2023/11/29 11:02:52;;;;;;;1999.90;999.90;;;;;;;10.28;60.98;100125.94;10380108;28;20046;-73
2023/11/29 11:07:55;;;;;;;1999.90;999.90;;;;;;;10.65;60.82;100129.56;10379748;28;20058;-73
2023/11/29 11:12:58;;;;;;;1999.90;999.90;;;;;;;11.21;60.09;100130.94;10362171;28;20129;-73
2023/11/29 11:18:04;;;;;;;1999.90;999.90;;;;;;;10.72;60.17;100122.13;10362744;28;20061;-73
2023/11/29 11:23:06;;;;;;;1999.90;999.90;;;;;;;11.37;61.67;100133.34;10379116;28;20108;-74
2023/11/29 11:28:34;;;;;;;1999.90;999.90;;;;;;;12.62;59.07;100130.25;10379130;28;20060;-73
2023/11/29 11:33:52;;;;;;;1999.90;999.90;;;;;;;11.60;60.38;100132.53;10361739;28;20057;-73
2023/11/29 11:38:55;;;;;;;1999.90;999.90;;;;;;;11.41;58.52;100135.59;10378521;28;20452;-73
2023/11/29 11:43:57;;;;;;;1999.90;999.90;;;;;;;11.42;58.06;100121.56;10361320;28;20078;-73
2023/11/29 11:49:01;;;;;;;1999.90;999.90;;;;;;;10.87;57.85;100126.28;10378792;28;20129;-73
2023/11/29 11:54:04;;;;;;;1999.90;999.90;;;;;;;10.54;57.40;100122.44;10378057;28;20050;-73
2023/11/29 11:59:07;;;;;;;1999.90;999.90;;;;;;;10.88;55.12;100117.50;10377856;28;20058;-73
2023/11/29 12:04:09;;;;;;;1999.90;999.90;;;;;;;11.05;56.96;100129.41;10360237;28;20046;-73
2023/11/29 12:09:12;;;;;;;1999.90;999.90;;;;;;;10.92;60.39;100139.91;10376832;28;20054;-73
2023/11/29 12:14:19;;;;;;;1999.90;999.90;;;;;;;11.35;60.11;100138.69;10377412;28;20046;-74
2023/11/29 12:19:22;;;;;;;1999.90;999.90;;;;;;;11.09;61.88;100140.50;10376924;28;20049;-73
2023/11/29 12:24:25;;;;;;;1999.90;999.90;;;;;;;11.13;61.97;100145.44;10359684;28;20081;-73
2023/11/29 12:29:47;;;;;;;1999.90;999.90;;;;;;;10.40;65.04;100141.66;10376737;28;20105;-73
2023/11/29 12:34:50;;;;;;;1999.90;999.90;;;;;;;10.58;62.38;100136.97;10359355;28;20050;-73
2023/11/29 12:39:57;;;;;;;1999.90;999.90;;;;;;;11.13;61.18;100132.34;10359114;28;20049;-74
2023/11/29 12:44:59;;;;;;;1999.90;999.90;;;;;;;11.02;61.51;100136.66;10376472;28;20049;-74
2023/11/29 12:50:02;;;;;;;1999.90;999.90;;;;;;;10.58;63.16;100138.78;10376247;28;20133;-74
2023/11/29 12:55:05;;;;;;;1999.90;999.90;;;;;;;10.96;62.90;100138.75;10358346;28;20121;-73
2023/11/29 13:00:08;;;;;;;1999.90;999.90;;;;;;;10.86;62.17;100150.81;10375671;28;20128;-74
2023/11/29 13:05:11;;;;;;;1999.90;999.90;;;;;;;10.09;63.60;100149.88;10357851;28;20421;-74
2023/11/29 13:10:13;;;;;;;1999.90;999.90;;;;;;;9.82;64.77;100146.31;10357749;28;20056;-73
2023/11/29 13:15:17;;;;;;;1999.90;999.90;;;;;;;9.09;64.64;100154.41;10375001;28;20512;-74
2023/11/29 13:20:20;;;;;;;1999.90;999.90;;;;;;;9.89;61.67;100141.53;10373539;28;20050;-73
2023/11/29 13:25:23;;;;;;;1999.90;999.90;;;;;;;10.12;60.38;100142.66;10374393;28;20060;-73
2023/11/29 13:30:25;;;;;;;1999.90;999.90;;;;;;;10.40;61.18;100146.06;10357445;28;20049;-73
2023/11/29 13:40:33;;;;;;;1999.90;999.90;;;;;;;9.36;63.84;100146.63;10290905;28;20509;-72
2023/11/29 13:45:36;;;;;;;1999.90;999.90;;;;;;;9.79;63.45;100140.47;10292600;28;20051;-72
2023/11/29 13:50:39;;;;;;;1999.90;999.90;;;;;;;10.23;62.11;100141.94;10292430;28;20074;-72
2023/11/29 13:55:41;;;;;;;1999.90;999.90;;;;;;;9.98;63.51;100133.09;10276223;28;20561;-72
2023/11/29 14:00:43;;;;;;;1999.90;999.90;;;;;;;9.94;62.98;100131.63;10293199;28;20134;-72
2023/11/29 14:05:46;;;;;;;1999.90;999.90;;;;;;;9.56;63.97;100128.88;10293022;28;20486;-72
2023/11/29 14:10:49;;;;;;;1999.90;999.90;;;;;;;10.03;61.89;100133.63;10293321;28;20081;-72
2023/11/29 14:15:51;;;;;;;1999.90;999.90;;;;;;;9.29;64.46;100137.50;10291789;28;20397;-72
2023/11/29 14:20:54;;;;;;;1999.90;999.90;;;;;;;9.43;63.71;100136.63;10293116;28;20057;-72
2023/11/29 14:25:56;;;;;;;1999.90;999.90;;;;;;;9.00;64.33;100134.94;10292791;28;20133;-72
2023/11/29 14:30:59;;;;;;;1999.90;999.90;;;;;;;9.52;63.67;100138.69;10292766;28;20057;-72
2023/11/29 14:36:05;;;;;;;1999.90;999.90;;;;;;;8.55;64.25;100155.03;10299996;28;20133;-72
2023/11/29 14:41:08;;;;;;;1999.90;999.90;;;;;;;8.54;66.74;100151.59;10300157;28;20058;-72
2023/11/29 14:46:13;;;;;;;1999.90;999.90;;;;;;;7.62;68.58;100162.03;10300042;28;20047;-72
2023/11/29 14:51:16;;;;;;;1999.90;999.90;;;;;;;8.60;66.17;100153.00;10299663;28;20054;-72
2023/11/29 14:56:18;;;;;;;1999.90;999.90;;;;;;;8.68;65.46;100147.31;10298296;28;20486;-72
2023/11/29 15:01:30;;;;;;;1999.90;999.90;;;;;;;8.48;65.16;100145.91;10298400;28;20054;-72
2023/11/29 15:06:32;;;;;;;1999.90;999.90;;;;;;;9.20;63.58;100143.31;10298990;28;20405;-72
2023/11/29 15:11:35;;;;;;;1999.90;999.90;;;;;;;7.75;66.39;100151.75;10297755;28;20141;-72
2023/11/29 15:16:38;;;;;;;1999.90;999.90;;;;;;;8.84;65.06;100149.84;10299008;28;20529;-72
2023/11/29 15:21:42;;;;;;;1999.90;999.90;;;;;;;8.25;65.48;100152.44;10297571;28;20055;-72
2023/11/29 15:26:44;;;;;;;1999.90;999.90;;;;;;;8.72;65.30;100154.03;10298290;28;20046;-72
2023/11/29 15:31:47;;;;;;;1999.90;999.90;;;;;;;8.11;64.86;100150.63;10298204;28;20398;-72
2023/11/29 15:36:49;;;;;;;1999.90;999.90;;;;;;;8.07;67.72;100144.75;10296893;28;20082;-72
2023/11/29 15:41:52;;;;;;;1999.90;999.90;;;;;;;8.40;65.14;100145.47;10297904;28;20055;-72
2023/11/29 15:46:58;;;;;;;1999.90;999.90;;;;;;;8.25;65.48;100149.81;10295868;28;20130;-72
2023/11/29 15:52:01;;;;;;;1999.90;999.90;;;;;;;7.82;64.57;100146.13;10296270;28;20061;-72
2023/11/29 15:57:04;;;;;;;1999.90;999.90;;;;;;;7.94;65.45;100148.97;10297417;28;20046;-72
2023/11/29 16:02:06;;;;;;;1999.90;999.90;;;;;;;8.10;64.40;100147.19;10295883;28;20054;-72
2023/11/29 16:07:08;;;;;;;1999.90;999.90;;;;;;;8.00;65.09;100154.69;10279603;28;20053;-72
2023/11/29 16:12:11;;;;;;;1999.90;999.90;;;;;;;7.63;65.47;100146.31;10295897;28;20053;-72
2023/11/29 16:17:13;;;;;;;1999.90;999.90;;;;;;;7.50;64.59;100140.13;10296289;28;20047;-72
2023/11/29 16:22:16;;;;;;;1999.90;999.90;;;;;;;7.67;66.16;100148.78;10296181;28;20077;-72
2023/11/29 16:27:18;;;;;;;1999.90;999.90;;;;;;;8.07;64.65;100149.09;10294575;28;20133;-72
2023/11/29 16:32:21;;;;;;;1999.90;999.90;;;;;;;8.06;64.16;100152.66;10294919;28;20051;-72
2023/11/29 16:37:23;;;;;;;1999.90;999.90;;;;;;;7.74;63.94;100155.31;10295607;28;20055;-72
2023/11/29 16:42:26;;;;;;;1999.90;999.90;;;;;;;7.34;65.36;100155.72;10278209;28;20060;-72
2023/11/29 16:47:28;;;;;;;1999.90;999.90;;;;;;;7.61;65.27;100160.34;10295327;28;20130;-72
2023/11/29 16:52:32;;;;;;;1999.90;999.90;;;;;;;7.48;64.25;100156.72;10293857;28;20058;-72
2023/11/29 16:57:35;;;;;;;1999.90;999.90;;;;;;;7.70;65.13;100164.19;10294042;28;20047;-73
2023/11/29 17:02:37;;;;;;;1999.90;999.90;;;;;;;7.56;65.45;100163.19;10294658;28;20086;-72
2023/11/29 17:07:40;;;;;;;1999.90;999.90;;;;;;;7.24;66.29;100163.19;10277523;28;20475;-72
2023/11/29 17:12:42;;;;;;;1999.90;999.90;;;;;;;7.46;65.97;100169.00;10294294;28;20516;-72
2023/11/29 17:17:45;;;;;;;1999.90;999.90;;;;;;;7.60;66.06;100169.94;10277102;28;20482;-72
2023/11/29 17:22:48;;;;;;;1999.90;999.90;;;;;;;7.38;67.45;100177.22;10294270;28;20134;-72
2023/11/29 17:27:50;;;;;;;1999.90;999.90;;;;;;;7.78;68.08;100177.66;10294218;28;20050;-72
2023/11/29 17:32:52;;;;;;;1999.90;999.90;;;;;;;8.04;67.49;100176.19;10294085;28;20133;-72
2023/11/29 17:37:55;;;;;;;1999.90;999.90;;;;;;;7.50;67.74;100192.22;10292770;28;20058;-72
2023/11/29 17:42:57;;;;;;;1999.90;999.90;;;;;;;7.57;70.07;100187.50;10293743;28;20141;-72
2023/11/29 17:48:00;;;;;;;1999.90;999.90;;;;;;;7.38;70.70;100192.84;10293346;28;20484;-72
2023/11/29 17:53:02;;;;;;;1999.90;999.90;;;;;;;7.87;66.95;100184.09;10293489;28;20443;-72
2023/11/29 17:58:05;;;;;;;1999.90;999.90;;;;;;;7.56;70.13;100191.84;10293526;28;20055;-72
2023/11/29 18:03:07;;;;;;;1999.90;999.90;;;;;;;8.10;66.78;100188.91;10293281;28;20133;-72
2023/11/29 18:08:10;;;;;;;1999.90;999.90;;;;;;;7.67;70.38;100186.06;10295685;28;20133;-72
2023/11/29 18:13:12;;;;;;;1999.90;999.90;;;;;;;7.29;70.37;100188.97;10300196;28;20054;-73
2023/11/29 18:18:15;;;;;;;1999.90;999.90;;;;;;;7.54;70.42;100188.50;10300968;28;20486;-72
2023/11/29 18:23:17;;;;;;;1999.90;999.90;;;;;;;7.17;71.48;100193.06;10299830;28;20050;-72
2023/11/29 18:28:19;;;;;;;1999.90;999.90;;;;;;;7.30;69.53;100193.28;10300417;28;20051;-72
2023/11/29 18:33:22;;;;;;;1999.90;999.90;;;;;;;7.84;69.51;100186.91;10300589;28;20188;-72
2023/11/29 18:38:28;;;;;;;1999.90;999.90;;;;;;;7.00;70.57;100191.34;10299349;28;20133;-72
2023/11/29 18:43:32;;;;;;;1999.90;999.90;;;;;;;7.57;70.23;100197.94;10299063;28;20058;-72
2023/11/29 18:48:35;;;;;;;1999.90;999.90;;;;;;;7.03;69.78;100209.44;10282852;28;20046;-72
2023/11/29 18:53:38;;;;;;;1999.90;999.90;;;;;;;7.72;68.48;100204.06;10282687;28;20050;-72
2023/11/29 18:58:40;;;;;;;1999.90;999.90;;;;;;;7.51;69.30;100206.06;10299418;28;20453;-72
2023/11/29 19:03:43;;;;;;;1999.90;999.90;;;;;;;7.34;69.54;100213.00;10299190;28;20058;-72
2023/11/29 19:08:46;;;;;;;1999.90;999.90;;;;;;;7.28;68.63;100202.06;10298091;28;20057;-73
2023/11/29 19:13:48;;;;;;;1999.90;999.90;;;;;;;7.12;70.84;100207.28;10299543;28;20078;-73
2023/11/29 19:18:50;;;;;;;1999.90;999.90;;;;;;;7.58;69.05;100199.59;10297537;28;20490;-72
2023/11/29 19:23:53;;;;;;;1999.90;999.90;;;;;;;6.83;70.67;100214.81;10298409;28;20406;-72
2023/11/29 19:29:00;;;;;;;1999.90;999.90;;;;;;;6.81;72.35;100204.50;10298509;28;20097;-72
2023/11/29 19:34:02;;;;;;;1999.90;999.90;;;;;;;7.52;69.05;100210.38;10298400;28;20085;-72
2023/11/29 19:39:05;;;;;;;1999.90;999.90;;;;;;;7.35;68.65;100201.69;10298007;28;20137;-72
2023/11/29 19:44:07;;;;;;;1999.90;999.90;;;;;;;7.12;69.81;100208.09;10297970;28;20061;-72
2023/11/29 19:49:09;;;;;;;1999.90;999.90;;;;;;;6.29;72.61;100207.94;10296553;28;20054;-72
2023/11/29 19:54:12;;;;;;;1999.90;999.90;;;;;;;6.22;72.33;100210.91;10297351;28;20049;-72
2023/11/29 19:59:14;;;;;;;1999.90;999.90;;;;;;;6.73;72.82;100216.22;10297118;28;20046;-72
2023/11/29 20:04:18;;;;;;;1999.90;999.90;;;;;;;7.00;70.62;100209.56;10295765;28;20053;-72
2023/11/29 20:09:20;;;;;;;1999.90;999.90;;;;;;;7.79;68.83;100202.78;10295607;28;20050;-72
2023/11/29 20:14:24;;;;;;;1999.90;999.90;;;;;;;7.42;70.18;100220.44;10296484;28;20054;-72
2023/11/29 20:19:33;;;;;;;1999.90;999.90;;;;;;;6.86;71.68;100223.31;10295547;28;20081;-72
2023/11/29 20:24:35;;;;;;;1999.90;999.90;;;;;;;6.61;71.16;100226.31;10296209;28;20049;-72
2023/11/29 20:29:37;;;;;;;1999.90;999.90;;;;;;;6.60;70.25;100221.19;10295730;28;20046;-73
2023/11/29 20:34:40;;;;;;;1999.90;999.90;;;;;;;6.10;75.15;100220.13;10295807;28;20054;-72
2023/11/29 20:40:03;;;;;;;1999.90;999.90;;;;;;;7.52;70.15;100221.63;10295489;28;20062;-72
2023/11/29 20:45:06;;;;;;;1999.90;999.90;;;;;;;6.64;72.63;100226.16;10295332;28;20051;-73
2023/11/29 20:50:09;;;;;;;1999.90;999.90;;;;;;;7.34;70.85;100204.38;10294037;28;20059;-72
2023/11/29 20:55:11;;;;;;;1999.90;999.90;;;;;;;6.97;71.13;100207.13;10294034;28;20042;-72
2023/11/29 21:00:14;;;;;;;1999.90;999.90;;;;;;;7.17;69.73;100193.06;10293678;28;20051;-72
2023/11/29 21:05:17;;;;;;;1999.90;999.90;;;;;;;6.80;70.86;100200.19;10294675;28;20552;-72
2023/11/29 21:10:20;;;;;;;1999.90;999.90;;;;;;;7.06;70.40;100195.41;10294658;28;20057;-72
2023/11/29 21:15:22;;;;;;;1999.90;999.90;;;;;;;7.43;67.30;100180.41;10293175;28;20555;-72
2023/11/29 21:20:25;;;;;;;1999.90;999.90;;;;;;;7.02;69.31;100192.13;10293373;28;20058;-72
2023/11/29 21:25:27;;;;;;;1999.90;999.90;;;;;;;7.19;68.81;100190.41;10293977;28;20050;-72
2023/11/29 21:30:29;;;;;;;1999.90;999.90;;;;;;;6.87;67.80;100192.91;10293072;28;20055;-72
2023/11/29 21:35:32;;;;;;;1999.90;999.90;;;;;;;6.89;68.02;100196.28;10293970;28;20046;-73
2023/11/29 21:40:34;;;;;;;1999.90;999.90;;;;;;;7.72;65.50;100181.44;10293728;28;20057;-72
2023/11/29 21:45:37;;;;;;;1999.90;999.90;;;;;;;7.74;64.63;100183.97;10292091;28;20133;-72
2023/11/29 21:50:39;;;;;;;1999.90;999.90;;;;;;;7.02;67.03;100197.31;10293506;28;20138;-72
2023/11/29 21:55:42;;;;;;;1999.90;999.90;;;;;;;7.04;65.77;100198.09;10293706;28;20047;-72
2023/11/29 22:00:44;;;;;;;1999.90;999.90;;;;;;;7.03;64.94;100193.81;10291883;28;20050;-72
2023/11/29 22:05:46;;;;;;;1999.90;999.90;;;;;;;7.08;65.06;100193.56;10293093;28;20510;-72
2023/11/29 22:10:49;;;;;;;1999.90;999.90;;;;;;;7.74;64.30;100191.78;10293388;28;20047;-72
2023/11/29 22:15:51;;;;;;;1999.90;999.90;;;;;;;7.51;65.11;100186.06;10292993;28;20474;-72